sensor_id;sensor_type;location;lat;lon;timestamp;temperature;humidity
47590;DHT22;33316;52.298;9.056;2023-08-24T00:01:02;20.30;78.10
47590;DHT22;33316;52.298;9.056;2023-08-24T00:03:30;20.30;78.20
47590;DHT22;33316;52.298;9.056;2023-08-24T00:05:58;20.20;78.30
47590;DHT22;33316;52.298;9.056;2023-08-24T00:08:25;20.20;78.40
47590;DHT22;33316;52.298;9.056;2023-08-24T00:10:52;20.20;78.40
47590;DHT22;33316;52.298;9.056;2023-08-24T00:13:20;20.20;78.60
47590;DHT22;33316;52.298;9.056;2023-08-24T00:15:47;20.10;78.60
47590;DHT22;33316;52.298;9.056;2023-08-24T00:18:13;20.20;78.70
47590;DHT22;33316;52.298;9.056;2023-08-24T00:20:42;20.10;78.80
47590;DHT22;33316;52.298;9.056;2023-08-24T00:23:08;20.10;79.00
47590;DHT22;33316;52.298;9.056;2023-08-24T00:25:35;20.00;79.80
47590;DHT22;33316;52.298;9.056;2023-08-24T00:28:03;20.00;79.10
47590;DHT22;33316;52.298;9.056;2023-08-24T00:30:30;20.00;79.40
47590;DHT22;33316;52.298;9.056;2023-08-24T00:32:57;20.00;79.50
47590;DHT22;33316;52.298;9.056;2023-08-24T00:35:24;20.00;79.60
47590;DHT22;33316;52.298;9.056;2023-08-24T00:37:52;19.90;79.70
47590;DHT22;33316;52.298;9.056;2023-08-24T00:40:19;19.90;79.80
47590;DHT22;33316;52.298;9.056;2023-08-24T00:42:46;19.90;79.90
47590;DHT22;33316;52.298;9.056;2023-08-24T00:45:13;19.80;80.00
47590;DHT22;33316;52.298;9.056;2023-08-24T00:47:43;19.90;80.10
47590;DHT22;33316;52.298;9.056;2023-08-24T00:50:11;19.90;80.20
47590;DHT22;33316;52.298;9.056;2023-08-24T00:52:41;19.80;80.30
47590;DHT22;33316;52.298;9.056;2023-08-24T00:55:10;19.80;80.50
47590;DHT22;33316;52.298;9.056;2023-08-24T00:57:37;19.80;80.60
47590;DHT22;33316;52.298;9.056;2023-08-24T01:00:06;19.70;80.70
47590;DHT22;33316;52.298;9.056;2023-08-24T01:02:35;19.70;80.70
47590;DHT22;33316;52.298;9.056;2023-08-24T01:05:02;19.70;81.20
47590;DHT22;33316;52.298;9.056;2023-08-24T01:07:30;19.60;80.70
47590;DHT22;33316;52.298;9.056;2023-08-24T01:09:57;19.60;81.00
47590;DHT22;33316;52.298;9.056;2023-08-24T01:12:31;19.60;81.10
47590;DHT22;33316;52.298;9.056;2023-08-24T01:15:04;19.50;81.20
47590;DHT22;33316;52.298;9.056;2023-08-24T01:17:32;19.50;81.30
47590;DHT22;33316;52.298;9.056;2023-08-24T01:20:04;19.50;81.20
47590;DHT22;33316;52.298;9.056;2023-08-24T01:22:34;19.50;81.40
47590;DHT22;33316;52.298;9.056;2023-08-24T01:25:06;19.50;81.50
47590;DHT22;33316;52.298;9.056;2023-08-24T01:27:36;19.40;81.50
47590;DHT22;33316;52.298;9.056;2023-08-24T01:30:05;19.50;81.50
47590;DHT22;33316;52.298;9.056;2023-08-24T01:32:34;19.40;81.40
47590;DHT22;33316;52.298;9.056;2023-08-24T01:35:09;19.40;81.40
47590;DHT22;33316;52.298;9.056;2023-08-24T01:37:37;19.30;81.30
47590;DHT22;33316;52.298;9.056;2023-08-24T01:40:06;19.30;81.40
47590;DHT22;33316;52.298;9.056;2023-08-24T01:42:43;19.30;81.60
47590;DHT22;33316;52.298;9.056;2023-08-24T01:45:12;19.30;81.70
47590;DHT22;33316;52.298;9.056;2023-08-24T01:47:41;19.20;81.70
47590;DHT22;33316;52.298;9.056;2023-08-24T01:50:09;19.20;81.80
47590;DHT22;33316;52.298;9.056;2023-08-24T01:52:37;19.10;81.70
47590;DHT22;33316;52.298;9.056;2023-08-24T01:55:05;19.10;81.70
47590;DHT22;33316;52.298;9.056;2023-08-24T01:57:32;19.10;81.90
47590;DHT22;33316;52.298;9.056;2023-08-24T02:00:01;19.10;82.20
47590;DHT22;33316;52.298;9.056;2023-08-24T02:02:39;19.10;82.50
47590;DHT22;33316;52.298;9.056;2023-08-24T02:05:06;19.10;82.60
47590;DHT22;33316;52.298;9.056;2023-08-24T02:07:33;19.00;82.80
47590;DHT22;33316;52.298;9.056;2023-08-24T02:10:01;19.00;82.80
47590;DHT22;33316;52.298;9.056;2023-08-24T02:12:28;19.00;82.90
47590;DHT22;33316;52.298;9.056;2023-08-24T02:14:55;18.90;82.90
47590;DHT22;33316;52.298;9.056;2023-08-24T02:17:23;18.90;82.90
47590;DHT22;33316;52.298;9.056;2023-08-24T02:19:50;18.90;82.90
47590;DHT22;33316;52.298;9.056;2023-08-24T02:22:17;18.90;83.00
47590;DHT22;33316;52.298;9.056;2023-08-24T02:24:44;18.90;83.20
47590;DHT22;33316;52.298;9.056;2023-08-24T02:27:12;18.90;83.20
47590;DHT22;33316;52.298;9.056;2023-08-24T02:29:39;18.80;83.20
47590;DHT22;33316;52.298;9.056;2023-08-24T02:32:06;18.80;83.20
47590;DHT22;33316;52.298;9.056;2023-08-24T02:34:34;18.80;83.20
47590;DHT22;33316;52.298;9.056;2023-08-24T02:37:01;18.80;83.20
47590;DHT22;33316;52.298;9.056;2023-08-24T02:39:28;18.80;83.20
47590;DHT22;33316;52.298;9.056;2023-08-24T02:41:55;18.70;83.30
47590;DHT22;33316;52.298;9.056;2023-08-24T02:44:22;18.70;83.30
47590;DHT22;33316;52.298;9.056;2023-08-24T02:46:49;18.70;83.30
47590;DHT22;33316;52.298;9.056;2023-08-24T02:49:17;18.70;83.50
47590;DHT22;33316;52.298;9.056;2023-08-24T02:51:45;18.70;83.60
47590;DHT22;33316;52.298;9.056;2023-08-24T02:54:12;18.70;83.60
47590;DHT22;33316;52.298;9.056;2023-08-24T02:56:39;18.60;83.60
47590;DHT22;33316;52.298;9.056;2023-08-24T02:59:06;18.60;83.60
47590;DHT22;33316;52.298;9.056;2023-08-24T03:01:32;18.60;83.50
47590;DHT22;33316;52.298;9.056;2023-08-24T03:04:00;18.60;83.50
47590;DHT22;33316;52.298;9.056;2023-08-24T03:06:27;18.60;83.50
47590;DHT22;33316;52.298;9.056;2023-08-24T03:08:55;18.60;83.60
47590;DHT22;33316;52.298;9.056;2023-08-24T03:11:22;18.60;83.70
47590;DHT22;33316;52.298;9.056;2023-08-24T03:13:49;18.50;83.70
47590;DHT22;33316;52.298;9.056;2023-08-24T03:16:16;18.50;83.70
47590;DHT22;33316;52.298;9.056;2023-08-24T03:18:43;18.50;83.80
47590;DHT22;33316;52.298;9.056;2023-08-24T03:21:10;18.50;83.80
47590;DHT22;33316;52.298;9.056;2023-08-24T03:23:37;18.50;83.70
47590;DHT22;33316;52.298;9.056;2023-08-24T03:26:07;18.40;83.70
47590;DHT22;33316;52.298;9.056;2023-08-24T03:28:34;18.40;83.80
47590;DHT22;33316;52.298;9.056;2023-08-24T03:31:01;18.40;84.00
47590;DHT22;33316;52.298;9.056;2023-08-24T03:33:28;18.30;84.10
47590;DHT22;33316;52.298;9.056;2023-08-24T03:35:56;18.30;84.30
47590;DHT22;33316;52.298;9.056;2023-08-24T03:38:23;18.30;84.40
47590;DHT22;33316;52.298;9.056;2023-08-24T03:40:50;18.30;84.40
47590;DHT22;33316;52.298;9.056;2023-08-24T03:43:19;18.20;84.20
47590;DHT22;33316;52.298;9.056;2023-08-24T03:45:46;18.30;84.20
47590;DHT22;33316;52.298;9.056;2023-08-24T03:48:13;18.20;84.00
47590;DHT22;33316;52.298;9.056;2023-08-24T03:50:41;18.20;84.00
47590;DHT22;33316;52.298;9.056;2023-08-24T03:53:08;18.20;84.20
47590;DHT22;33316;52.298;9.056;2023-08-24T03:55:35;18.20;84.20
47590;DHT22;33316;52.298;9.056;2023-08-24T03:58:03;18.10;84.20
47590;DHT22;33316;52.298;9.056;2023-08-24T04:00:32;18.10;84.20
47590;DHT22;33316;52.298;9.056;2023-08-24T04:03:00;18.10;84.30
47590;DHT22;33316;52.298;9.056;2023-08-24T04:05:28;18.00;84.30
47590;DHT22;33316;52.298;9.056;2023-08-24T04:07:55;18.00;84.50
47590;DHT22;33316;52.298;9.056;2023-08-24T04:10:22;18.00;84.60
47590;DHT22;33316;52.298;9.056;2023-08-24T04:12:49;18.00;84.80
47590;DHT22;33316;52.298;9.056;2023-08-24T04:15:16;18.00;85.00
47590;DHT22;33316;52.298;9.056;2023-08-24T04:17:44;17.90;85.20
47590;DHT22;33316;52.298;9.056;2023-08-24T04:20:12;17.90;85.40
47590;DHT22;33316;52.298;9.056;2023-08-24T04:22:38;17.90;85.60
47590;DHT22;33316;52.298;9.056;2023-08-24T04:25:06;17.90;85.70
47590;DHT22;33316;52.298;9.056;2023-08-24T04:27:33;18.00;85.80
47590;DHT22;33316;52.298;9.056;2023-08-24T04:30:00;18.00;85.80
47590;DHT22;33316;52.298;9.056;2023-08-24T04:32:28;18.00;85.90
47590;DHT22;33316;52.298;9.056;2023-08-24T04:34:57;18.00;86.00
47590;DHT22;33316;52.298;9.056;2023-08-24T04:37:24;18.00;86.20
47590;DHT22;33316;52.298;9.056;2023-08-24T04:39:50;18.00;86.30
47590;DHT22;33316;52.298;9.056;2023-08-24T04:42:17;18.00;86.30
47590;DHT22;33316;52.298;9.056;2023-08-24T04:44:44;18.00;86.60
47590;DHT22;33316;52.298;9.056;2023-08-24T04:47:11;18.10;87.50
47590;DHT22;33316;52.298;9.056;2023-08-24T04:49:38;18.00;86.70
47590;DHT22;33316;52.298;9.056;2023-08-24T04:52:06;18.00;86.70
47590;DHT22;33316;52.298;9.056;2023-08-24T04:54:33;18.10;86.70
47590;DHT22;33316;52.298;9.056;2023-08-24T04:57:00;18.00;86.60
47590;DHT22;33316;52.298;9.056;2023-08-24T04:59:27;18.00;86.70
47590;DHT22;33316;52.298;9.056;2023-08-24T05:01:53;18.10;86.80
47590;DHT22;33316;52.298;9.056;2023-08-24T05:04:20;18.10;86.80
47590;DHT22;33316;52.298;9.056;2023-08-24T05:06:47;18.10;86.80
47590;DHT22;33316;52.298;9.056;2023-08-24T05:09:16;18.10;87.00
47590;DHT22;33316;52.298;9.056;2023-08-24T05:11:44;18.10;87.00
47590;DHT22;33316;52.298;9.056;2023-08-24T05:14:10;18.10;87.10
47590;DHT22;33316;52.298;9.056;2023-08-24T05:16:39;18.10;87.10
47590;DHT22;33316;52.298;9.056;2023-08-24T05:19:06;18.20;87.40
47590;DHT22;33316;52.298;9.056;2023-08-24T05:21:33;18.20;87.50
47590;DHT22;33316;52.298;9.056;2023-08-24T05:24:00;18.20;87.50
47590;DHT22;33316;52.298;9.056;2023-08-24T05:26:28;18.30;87.50
47590;DHT22;33316;52.298;9.056;2023-08-24T05:28:55;18.30;87.60
47590;DHT22;33316;52.298;9.056;2023-08-24T05:31:21;18.30;87.60
47590;DHT22;33316;52.298;9.056;2023-08-24T05:33:48;18.30;87.60
47590;DHT22;33316;52.298;9.056;2023-08-24T05:36:15;18.30;87.60
47590;DHT22;33316;52.298;9.056;2023-08-24T05:38:42;18.30;87.70
47590;DHT22;33316;52.298;9.056;2023-08-24T05:41:12;18.30;87.90
47590;DHT22;33316;52.298;9.056;2023-08-24T05:43:41;18.30;87.90
47590;DHT22;33316;52.298;9.056;2023-08-24T05:46:07;18.30;87.90
47590;DHT22;33316;52.298;9.056;2023-08-24T05:48:34;18.30;88.00
47590;DHT22;33316;52.298;9.056;2023-08-24T05:51:01;18.30;88.20
47590;DHT22;33316;52.298;9.056;2023-08-24T05:53:28;18.30;88.20
47590;DHT22;33316;52.298;9.056;2023-08-24T05:55:57;18.30;88.20
47590;DHT22;33316;52.298;9.056;2023-08-24T05:58:25;18.30;88.30
47590;DHT22;33316;52.298;9.056;2023-08-24T06:01:02;18.30;88.40
47590;DHT22;33316;52.298;9.056;2023-08-24T06:03:29;18.30;88.90
47590;DHT22;33316;52.298;9.056;2023-08-24T06:06:01;18.30;88.90
47590;DHT22;33316;52.298;9.056;2023-08-24T06:08:29;18.30;89.00
47590;DHT22;33316;52.298;9.056;2023-08-24T06:10:56;18.30;89.60
47590;DHT22;33316;52.298;9.056;2023-08-24T06:13:23;18.40;88.80
47590;DHT22;33316;52.298;9.056;2023-08-24T06:15:50;18.40;88.70
47590;DHT22;33316;52.298;9.056;2023-08-24T06:18:19;18.40;88.80
47590;DHT22;33316;52.298;9.056;2023-08-24T06:20:46;18.50;88.90
47590;DHT22;33316;52.298;9.056;2023-08-24T06:23:15;18.50;88.80
47590;DHT22;33316;52.298;9.056;2023-08-24T06:25:42;18.60;88.80
47590;DHT22;33316;52.298;9.056;2023-08-24T06:28:10;18.60;88.70
47590;DHT22;33316;52.298;9.056;2023-08-24T06:30:37;18.60;88.60
47590;DHT22;33316;52.298;9.056;2023-08-24T06:33:05;18.70;88.70
47590;DHT22;33316;52.298;9.056;2023-08-24T06:35:34;18.70;88.70
47590;DHT22;33316;52.298;9.056;2023-08-24T06:38:01;18.70;88.60
47590;DHT22;33316;52.298;9.056;2023-08-24T06:40:28;18.80;88.60
47590;DHT22;33316;52.298;9.056;2023-08-24T06:42:55;18.80;88.60
47590;DHT22;33316;52.298;9.056;2023-08-24T06:45:22;18.90;88.60
47590;DHT22;33316;52.298;9.056;2023-08-24T06:47:49;18.90;88.60
47590;DHT22;33316;52.298;9.056;2023-08-24T06:50:17;18.90;88.50
47590;DHT22;33316;52.298;9.056;2023-08-24T06:52:46;19.00;88.60
47590;DHT22;33316;52.298;9.056;2023-08-24T06:55:13;19.10;88.80
47590;DHT22;33316;52.298;9.056;2023-08-24T06:57:40;19.10;88.70
47590;DHT22;33316;52.298;9.056;2023-08-24T07:00:07;19.20;88.60
47590;DHT22;33316;52.298;9.056;2023-08-24T07:02:35;19.30;88.50
47590;DHT22;33316;52.298;9.056;2023-08-24T07:05:02;19.30;88.50
47590;DHT22;33316;52.298;9.056;2023-08-24T07:07:31;19.30;88.50
47590;DHT22;33316;52.298;9.056;2023-08-24T07:10:00;19.40;88.70
47590;DHT22;33316;52.298;9.056;2023-08-24T07:12:27;19.40;88.60
47590;DHT22;33316;52.298;9.056;2023-08-24T07:14:54;19.50;88.60
47590;DHT22;33316;52.298;9.056;2023-08-24T07:17:21;19.50;88.50
47590;DHT22;33316;52.298;9.056;2023-08-24T07:19:48;19.40;88.40
47590;DHT22;33316;52.298;9.056;2023-08-24T07:22:15;19.50;88.60
47590;DHT22;33316;52.298;9.056;2023-08-24T07:24:42;19.50;89.00
47590;DHT22;33316;52.298;9.056;2023-08-24T07:27:10;19.60;89.00
47590;DHT22;33316;52.298;9.056;2023-08-24T07:29:37;19.80;89.00
47590;DHT22;33316;52.298;9.056;2023-08-24T07:32:04;20.00;88.30
47590;DHT22;33316;52.298;9.056;2023-08-24T07:34:31;20.10;88.00
47590;DHT22;33316;52.298;9.056;2023-08-24T07:36:58;20.40;87.40
47590;DHT22;33316;52.298;9.056;2023-08-24T07:39:25;20.50;87.00
47590;DHT22;33316;52.298;9.056;2023-08-24T07:41:52;20.60;86.80
47590;DHT22;33316;52.298;9.056;2023-08-24T07:44:20;20.70;86.50
47590;DHT22;33316;52.298;9.056;2023-08-24T07:46:48;20.80;86.30
47590;DHT22;33316;52.298;9.056;2023-08-24T07:49:15;20.90;86.00
47590;DHT22;33316;52.298;9.056;2023-08-24T07:51:42;21.10;85.70
47590;DHT22;33316;52.298;9.056;2023-08-24T07:54:09;21.20;85.40
47590;DHT22;33316;52.298;9.056;2023-08-24T07:56:36;21.30;85.10
47590;DHT22;33316;52.298;9.056;2023-08-24T07:59:03;21.50;85.80
47590;DHT22;33316;52.298;9.056;2023-08-24T08:01:32;21.50;84.60
47590;DHT22;33316;52.298;9.056;2023-08-24T08:03:59;21.60;84.10
47590;DHT22;33316;52.298;9.056;2023-08-24T08:06:26;21.70;84.00
47590;DHT22;33316;52.298;9.056;2023-08-24T08:08:54;21.80;83.70
47590;DHT22;33316;52.298;9.056;2023-08-24T08:11:22;21.90;83.60
47590;DHT22;33316;52.298;9.056;2023-08-24T08:13:49;22.00;83.40
47590;DHT22;33316;52.298;9.056;2023-08-24T08:16:16;22.20;83.00
47590;DHT22;33316;52.298;9.056;2023-08-24T08:18:44;22.30;82.50
47590;DHT22;33316;52.298;9.056;2023-08-24T08:21:17;22.40;82.00
47590;DHT22;33316;52.298;9.056;2023-08-24T08:23:45;22.50;81.60
47590;DHT22;33316;52.298;9.056;2023-08-24T08:26:12;22.50;81.60
47590;DHT22;33316;52.298;9.056;2023-08-24T08:28:40;22.60;81.40
47590;DHT22;33316;52.298;9.056;2023-08-24T08:31:07;22.70;81.20
47590;DHT22;33316;52.298;9.056;2023-08-24T08:33:34;22.70;81.00
47590;DHT22;33316;52.298;9.056;2023-08-24T08:36:02;22.80;81.00
47590;DHT22;33316;52.298;9.056;2023-08-24T08:38:29;23.00;81.00
47590;DHT22;33316;52.298;9.056;2023-08-24T08:41:01;23.10;80.40
47590;DHT22;33316;52.298;9.056;2023-08-24T08:43:29;23.20;80.00
47590;DHT22;33316;52.298;9.056;2023-08-24T08:45:58;23.20;79.60
47590;DHT22;33316;52.298;9.056;2023-08-24T08:48:25;23.20;79.70
47590;DHT22;33316;52.298;9.056;2023-08-24T08:50:55;23.30;79.40
47590;DHT22;33316;52.298;9.056;2023-08-24T08:53:23;23.40;79.00
47590;DHT22;33316;52.298;9.056;2023-08-24T08:55:52;23.50;79.00
47590;DHT22;33316;52.298;9.056;2023-08-24T08:58:20;23.60;79.50
47590;DHT22;33316;52.298;9.056;2023-08-24T09:00:47;23.70;78.60
47590;DHT22;33316;52.298;9.056;2023-08-24T09:03:17;23.70;78.20
47590;DHT22;33316;52.298;9.056;2023-08-24T09:05:45;23.80;77.90
47590;DHT22;33316;52.298;9.056;2023-08-24T09:08:15;23.90;77.90
47590;DHT22;33316;52.298;9.056;2023-08-24T09:10:44;24.00;77.60
47590;DHT22;33316;52.298;9.056;2023-08-24T09:13:11;24.10;77.30
47590;DHT22;33316;52.298;9.056;2023-08-24T09:15:38;24.20;77.20
47590;DHT22;33316;52.298;9.056;2023-08-24T09:18:05;24.30;76.80
47590;DHT22;33316;52.298;9.056;2023-08-24T09:20:33;24.40;76.40
47590;DHT22;33316;52.298;9.056;2023-08-24T09:23:00;24.50;75.70
47590;DHT22;33316;52.298;9.056;2023-08-24T09:25:28;24.60;75.40
47590;DHT22;33316;52.298;9.056;2023-08-24T09:28:01;24.70;75.00
47590;DHT22;33316;52.298;9.056;2023-08-24T09:30:30;24.70;74.80
47590;DHT22;33316;52.298;9.056;2023-08-24T09:33:02;24.80;74.70
47590;DHT22;33316;52.298;9.056;2023-08-24T09:35:35;24.80;74.00
47590;DHT22;33316;52.298;9.056;2023-08-24T09:38:16;24.90;74.10
47590;DHT22;33316;52.298;9.056;2023-08-24T09:40:45;24.90;72.90
47590;DHT22;33316;52.298;9.056;2023-08-24T09:43:14;25.00;73.20
47590;DHT22;33316;52.298;9.056;2023-08-24T09:45:48;25.00;72.50
47590;DHT22;33316;52.298;9.056;2023-08-24T09:48:16;25.00;72.40
47590;DHT22;33316;52.298;9.056;2023-08-24T09:50:44;25.10;71.70
47590;DHT22;33316;52.298;9.056;2023-08-24T09:53:16;25.10;70.90
47590;DHT22;33316;52.298;9.056;2023-08-24T09:55:44;25.10;70.50
47590;DHT22;33316;52.298;9.056;2023-08-24T09:58:17;25.10;71.00
47590;DHT22;33316;52.298;9.056;2023-08-24T10:00:45;25.20;70.50
47590;DHT22;33316;52.298;9.056;2023-08-24T10:03:16;25.30;70.20
47590;DHT22;33316;52.298;9.056;2023-08-24T10:05:50;25.30;69.70
47590;DHT22;33316;52.298;9.056;2023-08-24T10:08:22;25.30;68.70
47590;DHT22;33316;52.298;9.056;2023-08-24T10:10:53;25.30;67.90
47590;DHT22;33316;52.298;9.056;2023-08-24T10:13:29;25.40;68.50
47590;DHT22;33316;52.298;9.056;2023-08-24T10:15:59;25.50;68.60
47590;DHT22;33316;52.298;9.056;2023-08-24T10:18:26;25.50;67.40
47590;DHT22;33316;52.298;9.056;2023-08-24T10:20:54;25.60;67.40
47590;DHT22;33316;52.298;9.056;2023-08-24T10:23:22;25.60;66.60
47590;DHT22;33316;52.298;9.056;2023-08-24T10:25:51;25.70;66.20
47590;DHT22;33316;52.298;9.056;2023-08-24T10:28:18;25.80;66.00
47590;DHT22;33316;52.298;9.056;2023-08-24T10:30:48;25.80;66.30
47590;DHT22;33316;52.298;9.056;2023-08-24T10:33:18;25.90;66.10
47590;DHT22;33316;52.298;9.056;2023-08-24T10:35:47;25.90;65.50
47590;DHT22;33316;52.298;9.056;2023-08-24T10:38:25;26.00;65.10
47590;DHT22;33316;52.298;9.056;2023-08-24T10:40:53;26.10;62.80
47590;DHT22;33316;52.298;9.056;2023-08-24T10:43:22;26.10;63.30
47590;DHT22;33316;52.298;9.056;2023-08-24T10:45:58;26.10;62.80
47590;DHT22;33316;52.298;9.056;2023-08-24T10:48:26;26.10;62.60
47590;DHT22;33316;52.298;9.056;2023-08-24T10:51:18;26.20;63.90
47590;DHT22;33316;52.298;9.056;2023-08-24T10:53:47;26.20;64.40
47590;DHT22;33316;52.298;9.056;2023-08-24T10:56:16;26.30;64.20
47590;DHT22;33316;52.298;9.056;2023-08-24T10:58:45;26.40;63.60
47590;DHT22;33316;52.298;9.056;2023-08-24T11:01:17;26.50;62.50
47590;DHT22;33316;52.298;9.056;2023-08-24T11:03:49;26.50;62.90
47590;DHT22;33316;52.298;9.056;2023-08-24T11:06:18;26.50;62.80
47590;DHT22;33316;52.298;9.056;2023-08-24T11:08:46;26.60;61.70
47590;DHT22;33316;52.298;9.056;2023-08-24T11:11:18;26.60;61.50
47590;DHT22;33316;52.298;9.056;2023-08-24T11:14:15;26.60;60.90
47590;DHT22;33316;52.298;9.056;2023-08-24T11:16:46;26.70;61.10
47590;DHT22;33316;52.298;9.056;2023-08-24T11:19:14;26.70;61.60
47590;DHT22;33316;52.298;9.056;2023-08-24T11:21:43;26.80;60.80
47590;DHT22;33316;52.298;9.056;2023-08-24T11:24:12;26.80;59.90
47590;DHT22;33316;52.298;9.056;2023-08-24T11:26:41;26.80;60.20
47590;DHT22;33316;52.298;9.056;2023-08-24T11:29:08;26.90;60.30
47590;DHT22;33316;52.298;9.056;2023-08-24T11:31:35;26.90;60.60
47590;DHT22;33316;52.298;9.056;2023-08-24T11:34:03;26.90;60.40
47590;DHT22;33316;52.298;9.056;2023-08-24T11:36:31;27.00;60.10
47590;DHT22;33316;52.298;9.056;2023-08-24T11:38:59;27.00;60.50
47590;DHT22;33316;52.298;9.056;2023-08-24T11:41:26;27.10;60.90
47590;DHT22;33316;52.298;9.056;2023-08-24T11:44:00;27.10;60.70
47590;DHT22;33316;52.298;9.056;2023-08-24T11:46:29;27.10;60.20
47590;DHT22;33316;52.298;9.056;2023-08-24T11:48:58;27.20;60.70
47590;DHT22;33316;52.298;9.056;2023-08-24T11:51:27;27.20;60.30
47590;DHT22;33316;52.298;9.056;2023-08-24T11:53:53;27.30;60.20
47590;DHT22;33316;52.298;9.056;2023-08-24T11:56:22;27.30;60.10
47590;DHT22;33316;52.298;9.056;2023-08-24T11:58:49;27.40;60.20
47590;DHT22;33316;52.298;9.056;2023-08-24T12:01:17;27.40;59.70
47590;DHT22;33316;52.298;9.056;2023-08-24T12:03:44;27.40;59.30
47590;DHT22;33316;52.298;9.056;2023-08-24T12:06:12;27.50;59.20
47590;DHT22;33316;52.298;9.056;2023-08-24T12:08:43;27.50;58.50
47590;DHT22;33316;52.298;9.056;2023-08-24T12:11:12;27.50;57.90
47590;DHT22;33316;52.298;9.056;2023-08-24T12:13:43;27.50;57.90
47590;DHT22;33316;52.298;9.056;2023-08-24T12:16:11;27.50;58.10
47590;DHT22;33316;52.298;9.056;2023-08-24T12:18:47;27.50;58.50
47590;DHT22;33316;52.298;9.056;2023-08-24T12:21:15;27.60;58.70
47590;DHT22;33316;52.298;9.056;2023-08-24T12:23:43;27.70;58.80
47590;DHT22;33316;52.298;9.056;2023-08-24T12:26:17;27.70;59.10
47590;DHT22;33316;52.298;9.056;2023-08-24T12:28:49;27.70;58.50
47590;DHT22;33316;52.298;9.056;2023-08-24T12:31:17;27.80;58.10
47590;DHT22;33316;52.298;9.056;2023-08-24T12:33:45;27.80;58.00
47590;DHT22;33316;52.298;9.056;2023-08-24T12:36:12;27.80;58.30
47590;DHT22;33316;52.298;9.056;2023-08-24T12:38:39;27.90;58.10
47590;DHT22;33316;52.298;9.056;2023-08-24T12:41:09;27.90;58.70
47590;DHT22;33316;52.298;9.056;2023-08-24T12:43:36;27.90;58.30
47590;DHT22;33316;52.298;9.056;2023-08-24T12:46:04;28.00;58.50
47590;DHT22;33316;52.298;9.056;2023-08-24T12:48:31;28.00;58.50
47590;DHT22;33316;52.298;9.056;2023-08-24T12:51:00;28.10;58.60
47590;DHT22;33316;52.298;9.056;2023-08-24T12:53:27;28.10;57.90
47590;DHT22;33316;52.298;9.056;2023-08-24T12:55:54;28.10;58.30
47590;DHT22;33316;52.298;9.056;2023-08-24T12:58:22;28.10;58.60
47590;DHT22;33316;52.298;9.056;2023-08-24T13:00:49;28.20;58.60
47590;DHT22;33316;52.298;9.056;2023-08-24T13:03:16;28.20;58.10
47590;DHT22;33316;52.298;9.056;2023-08-24T13:05:43;28.20;58.40
47590;DHT22;33316;52.298;9.056;2023-08-24T13:08:10;28.20;58.20
47590;DHT22;33316;52.298;9.056;2023-08-24T13:10:37;28.20;58.60
47590;DHT22;33316;52.298;9.056;2023-08-24T13:13:04;28.20;58.00
47590;DHT22;33316;52.298;9.056;2023-08-24T13:15:32;28.20;58.40
47590;DHT22;33316;52.298;9.056;2023-08-24T13:17:59;28.20;58.10
47590;DHT22;33316;52.298;9.056;2023-08-24T13:20:26;28.20;58.70
47590;DHT22;33316;52.298;9.056;2023-08-24T13:22:53;28.20;59.00
47590;DHT22;33316;52.298;9.056;2023-08-24T13:25:20;28.30;59.10
47590;DHT22;33316;52.298;9.056;2023-08-24T13:27:46;28.30;59.00
47590;DHT22;33316;52.298;9.056;2023-08-24T13:30:14;28.30;58.90
47590;DHT22;33316;52.298;9.056;2023-08-24T13:32:42;28.30;58.60
47590;DHT22;33316;52.298;9.056;2023-08-24T13:35:09;28.30;58.90
47590;DHT22;33316;52.298;9.056;2023-08-24T13:37:36;28.30;59.00
47590;DHT22;33316;52.298;9.056;2023-08-24T13:40:03;28.30;59.10
47590;DHT22;33316;52.298;9.056;2023-08-24T13:42:30;28.30;59.30
47590;DHT22;33316;52.298;9.056;2023-08-24T13:44:57;28.30;58.60
47590;DHT22;33316;52.298;9.056;2023-08-24T13:47:24;28.30;58.60
47590;DHT22;33316;52.298;9.056;2023-08-24T13:49:52;28.30;58.80
47590;DHT22;33316;52.298;9.056;2023-08-24T13:52:19;28.30;59.10
47590;DHT22;33316;52.298;9.056;2023-08-24T13:54:46;28.30;59.30
47590;DHT22;33316;52.298;9.056;2023-08-24T13:57:13;28.40;59.20
47590;DHT22;33316;52.298;9.056;2023-08-24T13:59:41;28.30;59.20
47590;DHT22;33316;52.298;9.056;2023-08-24T14:02:07;28.40;59.40
47590;DHT22;33316;52.298;9.056;2023-08-24T14:04:34;28.40;59.20
47590;DHT22;33316;52.298;9.056;2023-08-24T14:07:03;28.40;59.40
47590;DHT22;33316;52.298;9.056;2023-08-24T14:09:30;28.30;59.20
47590;DHT22;33316;52.298;9.056;2023-08-24T14:11:58;28.40;59.30
47590;DHT22;33316;52.298;9.056;2023-08-24T14:14:25;28.30;59.20
47590;DHT22;33316;52.298;9.056;2023-08-24T14:16:55;28.40;59.40
47590;DHT22;33316;52.298;9.056;2023-08-24T14:19:23;28.40;59.60
47590;DHT22;33316;52.298;9.056;2023-08-24T14:21:51;28.40;59.50
47590;DHT22;33316;52.298;9.056;2023-08-24T14:24:19;28.40;59.80
47590;DHT22;33316;52.298;9.056;2023-08-24T14:26:46;28.30;59.70
47590;DHT22;33316;52.298;9.056;2023-08-24T14:29:13;28.30;60.00
47590;DHT22;33316;52.298;9.056;2023-08-24T14:31:40;28.20;60.30
47590;DHT22;33316;52.298;9.056;2023-08-24T14:34:07;28.30;60.50
47590;DHT22;33316;52.298;9.056;2023-08-24T14:36:34;28.20;60.70
47590;DHT22;33316;52.298;9.056;2023-08-24T14:39:01;28.30;60.80
47590;DHT22;33316;52.298;9.056;2023-08-24T14:41:29;28.30;61.00
47590;DHT22;33316;52.298;9.056;2023-08-24T14:43:56;28.30;61.10
47590;DHT22;33316;52.298;9.056;2023-08-24T14:46:24;28.20;61.20
47590;DHT22;33316;52.298;9.056;2023-08-24T14:48:51;28.20;61.20
47590;DHT22;33316;52.298;9.056;2023-08-24T14:51:18;28.20;61.50
47590;DHT22;33316;52.298;9.056;2023-08-24T14:53:45;28.20;61.60
47590;DHT22;33316;52.298;9.056;2023-08-24T14:56:11;28.20;61.90
47590;DHT22;33316;52.298;9.056;2023-08-24T14:58:40;28.20;62.20
47590;DHT22;33316;52.298;9.056;2023-08-24T15:01:07;28.20;62.40
47590;DHT22;33316;52.298;9.056;2023-08-24T15:03:34;28.20;62.40
47590;DHT22;33316;52.298;9.056;2023-08-24T15:06:02;28.20;62.40
47590;DHT22;33316;52.298;9.056;2023-08-24T15:08:30;28.20;62.60
47590;DHT22;33316;52.298;9.056;2023-08-24T15:10:58;28.20;62.80
47590;DHT22;33316;52.298;9.056;2023-08-24T15:13:26;28.20;63.90
47590;DHT22;33316;52.298;9.056;2023-08-24T15:15:55;28.10;63.00
47590;DHT22;33316;52.298;9.056;2023-08-24T15:18:23;28.20;63.10
47590;DHT22;33316;52.298;9.056;2023-08-24T15:20:50;28.10;63.30
47590;DHT22;33316;52.298;9.056;2023-08-24T15:23:21;28.10;63.40
47590;DHT22;33316;52.298;9.056;2023-08-24T15:25:48;28.10;63.20
47590;DHT22;33316;52.298;9.056;2023-08-24T15:28:15;28.00;63.30
47590;DHT22;33316;52.298;9.056;2023-08-24T15:30:42;28.00;64.30
47590;DHT22;33316;52.298;9.056;2023-08-24T15:33:10;27.90;63.50
47590;DHT22;33316;52.298;9.056;2023-08-24T15:35:39;27.90;63.60